createdAt,value
2022-10-05T00:01:02.229Z,11.27
2022-10-05T00:03:33.534Z,11.65
2022-10-05T00:06:00.371Z,9.40
2022-10-05T00:08:30.115Z,9.75
2022-10-05T00:10:56.719Z,10.43
2022-10-05T00:13:24.592Z,9.50
2022-10-05T00:15:52.877Z,12.07
2022-10-05T00:18:20.640Z,10.43
2022-10-05T00:20:47.995Z,12.48
2022-10-05T00:23:30.388Z,11.63
2022-10-05T00:26:10.932Z,10.55
2022-10-05T00:28:37.613Z,10.52
2022-10-05T00:31:11.403Z,10.70
2022-10-05T00:33:38.081Z,10.65
2022-10-05T00:36:06.369Z,12.02
2022-10-05T00:38:32.973Z,10.27
2022-10-05T00:40:59.545Z,10.43
2022-10-05T00:43:43.918Z,10.02
2022-10-05T00:46:19.890Z,11.07
2022-10-05T00:48:58.517Z,11.25
2022-10-05T00:51:27.257Z,11.45
2022-10-05T00:53:53.781Z,10.88
2022-10-05T00:56:23.429Z,11.98
2022-10-05T00:58:55.816Z,11.32
2022-10-05T01:01:28.665Z,10.82
2022-10-05T01:04:01.550Z,11.73
2022-10-05T01:06:40.596Z,10.80
2022-10-05T01:09:22.611Z,10.75
2022-10-05T01:12:01.701Z,10.20
2022-10-05T01:14:34.744Z,11.25
2022-10-05T01:17:06.217Z,12.73
2022-10-05T01:19:53.093Z,12.15
2022-10-05T01:22:30.039Z,13.90
2022-10-05T01:25:15.617Z,13.32
2022-10-05T01:27:51.421Z,12.60
2022-10-05T01:30:21.942Z,13.45
2022-10-05T01:32:54.680Z,13.40
2022-10-05T01:35:30.661Z,12.90
2022-10-05T01:38:16.200Z,13.27
2022-10-05T01:40:58.179Z,12.55
2022-10-05T01:43:27.917Z,13.13
2022-10-05T01:46:00.516Z,12.88
2022-10-05T01:48:27.097Z,13.57
2022-10-05T01:51:21.171Z,14.13
2022-10-05T01:53:50.562Z,13.93
2022-10-05T01:56:30.208Z,14.10
2022-10-05T01:59:16.029Z,13.98
2022-10-05T02:02:04.143Z,15.10
2022-10-05T02:05:02.937Z,14.48
2022-10-05T02:07:24.896Z,14.98
2022-10-05T02:09:55.398Z,15.00
2022-10-05T02:12:25.243Z,14.95
2022-10-05T02:14:56.882Z,13.73
2022-10-05T02:17:30.962Z,14.38
2022-10-05T02:20:00.151Z,13.95
2022-10-05T02:22:32.433Z,13.13
2022-10-05T02:25:01.773Z,13.75
2022-10-05T02:27:33.361Z,13.52
2022-10-05T02:30:02.370Z,13.48
2022-10-05T02:32:37.665Z,14.32
2022-10-05T02:35:12.490Z,15.52
2022-10-05T02:37:45.746Z,12.73
2022-10-05T02:40:35.416Z,12.57
2022-10-05T02:43:20.910Z,11.90
2022-10-05T02:46:11.238Z,11.75
2022-10-05T02:48:44.840Z,9.93
2022-10-05T02:51:24.019Z,11.20
2022-10-05T02:53:53.689Z,10.38
2022-10-05T02:56:23.776Z,11.05
2022-10-05T02:59:00.835Z,10.18
2022-10-05T03:01:34.325Z,10.40
2022-10-05T03:04:04.051Z,9.82
2022-10-05T03:06:33.047Z,10.95
2022-10-05T03:09:04.133Z,11.10
2022-10-05T03:11:35.139Z,10.48
2022-10-05T03:14:01.710Z,10.98
2022-10-05T03:16:35.477Z,11.05
2022-10-05T03:19:11.965Z,11.20
2022-10-05T03:21:48.477Z,11.30
2022-10-05T03:24:18.471Z,11.15
2022-10-05T03:26:58.034Z,11.52
2022-10-05T03:29:43.356Z,12.05
2022-10-05T03:32:28.871Z,12.63
2022-10-05T03:35:00.231Z,11.80
2022-10-05T03:37:33.850Z,12.02
2022-10-05T03:40:06.868Z,10.80
2022-10-05T03:42:56.843Z,12.32
2022-10-05T03:45:41.154Z,11.60
2022-10-05T03:48:25.681Z,11.23
2022-10-05T03:51:13.016Z,11.15
2022-10-05T03:53:57.618Z,12.57
2022-10-05T03:56:36.372Z,11.20
2022-10-05T03:59:06.046Z,12.60
2022-10-05T04:01:48.060Z,12.35
2022-10-05T04:04:20.006Z,12.57
2022-10-05T04:06:48.490Z,11.88
2022-10-05T04:09:20.161Z,11.57
2022-10-05T04:11:50.572Z,11.73
2022-10-05T04:14:40.628Z,11.77
2022-10-05T04:17:32.549Z,11.57
2022-10-05T04:19:59.391Z,10.88
2022-10-05T04:22:35.486Z,11.27
2022-10-05T04:25:15.147Z,10.80
2022-10-05T04:27:46.167Z,10.30
2022-10-05T04:30:14.721Z,11.10
2022-10-05T04:32:43.055Z,10.00
2022-10-05T04:35:19.983Z,10.70
2022-10-05T04:37:46.812Z,11.20
2022-10-05T04:40:41.043Z,10.27
2022-10-05T04:43:18.521Z,11.45
2022-10-05T04:46:04.665Z,9.95
2022-10-05T04:48:50.253Z,10.32
2022-10-05T04:51:22.773Z,12.35
2022-10-05T04:53:52.338Z,9.63
2022-10-05T04:56:20.473Z,9.73
2022-10-05T04:58:56.687Z,9.75
2022-10-05T05:01:23.575Z,9.15
2022-10-05T05:04:08.568Z,9.18
2022-10-05T05:06:35.378Z,10.30
2022-10-05T05:09:08.182Z,9.95
2022-10-05T05:11:41.714Z,10.32
2022-10-05T05:14:27.961Z,9.88
2022-10-05T05:17:04.423Z,10.82
2022-10-05T05:19:35.563Z,9.50
2022-10-05T05:22:14.343Z,9.48
2022-10-05T05:24:46.947Z,9.18
2022-10-05T05:27:32.102Z,8.45
2022-10-05T05:29:58.890Z,8.15
2022-10-05T05:32:35.224Z,9.48
2022-10-05T05:35:02.235Z,11.85
2022-10-05T05:37:29.173Z,9.32
2022-10-05T05:39:58.896Z,9.18
2022-10-05T05:42:28.581Z,9.48
2022-10-05T05:44:57.421Z,7.90
2022-10-05T05:47:29.808Z,9.10
2022-10-05T05:49:56.701Z,9.55
2022-10-05T05:52:27.814Z,7.95
2022-10-05T05:55:01.050Z,7.60
2022-10-05T05:57:30.037Z,7.75
2022-10-05T06:00:06.870Z,8.32
2022-10-05T06:02:57.277Z,8.50
2022-10-05T06:05:25.026Z,8.18
2022-10-05T06:07:52.846Z,7.25
2022-10-05T06:10:32.632Z,6.40
2022-10-05T06:13:14.466Z,7.05
2022-10-05T06:15:43.092Z,7.35
2022-10-05T06:18:15.470Z,7.45
2022-10-05T06:21:02.316Z,7.60
2022-10-05T06:23:40.032Z,6.85
2022-10-05T06:26:26.240Z,6.30
2022-10-05T06:28:58.496Z,6.82
2022-10-05T06:31:34.924Z,8.23
2022-10-05T06:34:08.584Z,7.28
2022-10-05T06:36:58.161Z,7.45
2022-10-05T06:39:43.391Z,7.65
2022-10-05T06:42:17.491Z,7.93
2022-10-05T06:45:05.610Z,7.45
2022-10-05T06:47:49.680Z,7.10
2022-10-05T06:50:47.058Z,6.47
2022-10-05T06:53:23.940Z,5.85
2022-10-05T06:56:11.630Z,5.90
2022-10-05T06:58:57.043Z,6.32
2022-10-05T07:01:37.442Z,5.90
2022-10-05T07:04:09.480Z,5.60
2022-10-05T07:06:40.049Z,5.35
2022-10-05T07:09:22.739Z,5.15
2022-10-05T07:12:08.227Z,5.18
2022-10-05T07:15:08.786Z,6.18
2022-10-05T07:17:45.625Z,5.78
2022-10-05T07:20:16.441Z,5.10
2022-10-05T07:22:43.383Z,5.18
2022-10-05T07:25:15.879Z,4.50
2022-10-05T07:28:03.433Z,5.20
2022-10-05T07:30:32.446Z,4.70
2022-10-05T07:33:05.737Z,4.82
2022-10-05T07:35:58.818Z,5.25
2022-10-05T07:38:48.968Z,4.53
2022-10-05T07:41:40.186Z,4.55
2022-10-05T07:44:18.786Z,4.10
2022-10-05T07:47:00.780Z,5.00
2022-10-05T07:49:28.376Z,4.75
2022-10-05T07:52:34.842Z,5.05
2022-10-05T07:55:05.332Z,4.90
2022-10-05T07:57:38.379Z,5.07
2022-10-05T08:00:05.858Z,5.55
2022-10-05T08:02:47.792Z,5.15
2022-10-05T08:05:26.575Z,5.28
2022-10-05T08:08:03.732Z,4.90
2022-10-05T08:10:37.090Z,5.05
2022-10-05T08:13:12.979Z,5.20
2022-10-05T08:15:42.823Z,5.53
2022-10-05T08:18:16.744Z,5.30
2022-10-05T08:20:54.227Z,5.22
2022-10-05T08:23:29.827Z,5.40
2022-10-05T08:25:56.369Z,5.30
2022-10-05T08:28:39.398Z,5.70
2022-10-05T08:31:06.090Z,5.90
2022-10-05T08:33:35.994Z,5.60
2022-10-05T08:36:13.631Z,6.13
2022-10-05T08:38:40.620Z,6.18
2022-10-05T08:41:07.316Z,6.03
2022-10-05T08:43:36.926Z,6.78
2022-10-05T08:46:09.596Z,6.63
2022-10-05T08:48:36.260Z,6.00
2022-10-05T08:51:05.912Z,5.97
2022-10-05T08:53:50.777Z,6.38
2022-10-05T08:56:28.945Z,5.57
2022-10-05T08:59:01.614Z,5.85
2022-10-05T09:01:46.895Z,5.70
2022-10-05T09:04:16.545Z,6.13
2022-10-05T09:06:51.081Z,6.78
2022-10-05T09:09:27.676Z,6.72
2022-10-05T09:12:13.066Z,5.72
2022-10-05T09:14:42.654Z,6.93
2022-10-05T09:17:19.244Z,6.88
2022-10-05T09:20:04.263Z,6.82
2022-10-05T09:22:54.697Z,7.53
2022-10-05T09:25:22.878Z,7.72
2022-10-05T09:27:52.762Z,7.90
2022-10-05T09:30:22.245Z,8.38
2022-10-05T09:33:03.841Z,8.15
2022-10-05T09:35:30.380Z,8.52
2022-10-05T09:38:08.562Z,8.63
2022-10-05T09:40:41.760Z,9.52
2022-10-05T09:43:08.377Z,9.27
2022-10-05T09:45:35.704Z,9.07
2022-10-05T09:48:08.482Z,9.18
2022-10-05T09:50:37.772Z,10.13
2022-10-05T09:53:23.140Z,9.80
2022-10-05T09:56:05.648Z,9.73
2022-10-05T09:59:02.632Z,8.90
2022-10-05T10:01:48.807Z,9.65
2022-10-05T10:04:15.735Z,10.77
2022-10-05T10:06:42.391Z,9.63
2022-10-05T10:09:29.167Z,9.57
2022-10-05T10:12:14.534Z,10.20
2022-10-05T10:15:03.037Z,10.30
2022-10-05T10:17:29.812Z,11.10
2022-10-05T10:20:15.239Z,10.20
2022-10-05T10:22:43.238Z,10.80
2022-10-05T10:25:12.972Z,10.23
2022-10-05T10:27:52.312Z,10.43
2022-10-05T10:30:37.774Z,10.95
2022-10-05T10:33:22.901Z,10.93
2022-10-05T10:36:02.913Z,11.30
2022-10-05T10:38:35.876Z,10.93
2022-10-05T10:41:08.185Z,11.38
2022-10-05T10:43:41.148Z,10.95
2022-10-05T10:46:40.251Z,12.15
2022-10-05T10:49:07.092Z,12.20
2022-10-05T10:51:49.371Z,12.18
2022-10-05T10:54:34.891Z,12.65
2022-10-05T10:57:04.493Z,13.07
2022-10-05T10:59:49.852Z,15.13
2022-10-05T11:02:27.409Z,15.18
2022-10-05T11:05:03.132Z,14.63
2022-10-05T11:07:29.669Z,15.05
2022-10-05T11:09:56.195Z,15.48
2022-10-05T11:12:26.087Z,14.70
2022-10-05T11:15:22.038Z,15.68
2022-10-05T11:17:54.806Z,14.73
2022-10-05T11:20:33.604Z,15.68
2022-10-05T11:23:18.622Z,14.32
2022-10-05T11:26:03.851Z,13.80
2022-10-05T11:28:30.525Z,13.43
2022-10-05T11:31:03.468Z,13.70
2022-10-05T11:33:48.913Z,14.30
2022-10-05T11:36:33.670Z,12.23
2022-10-05T11:39:09.330Z,13.23
2022-10-05T11:41:41.918Z,12.93
2022-10-05T11:44:24.722Z,12.93
2022-10-05T11:47:10.084Z,11.98
2022-10-05T11:49:57.945Z,13.02
2022-10-05T11:52:32.240Z,13.63
2022-10-05T11:55:19.595Z,12.07
2022-10-05T11:57:55.298Z,12.55
2022-10-05T12:00:23.397Z,11.40
2022-10-05T12:02:56.375Z,12.18
2022-10-05T12:05:27.852Z,11.93
2022-10-05T12:08:07.237Z,11.95
2022-10-05T12:10:36.604Z,11.43
2022-10-05T12:13:19.387Z,12.15
2022-10-05T12:15:47.374Z,10.82
2022-10-05T12:18:18.397Z,11.07
2022-10-05T12:20:46.044Z,11.85
2022-10-05T12:23:35.660Z,11.55
2022-10-05T12:26:05.430Z,10.65
2022-10-05T12:28:37.852Z,11.45
2022-10-05T12:31:29.810Z,10.82
2022-10-05T12:33:56.584Z,10.52
2022-10-05T12:37:02.930Z,12.25
2022-10-05T12:39:31.326Z,12.00
2022-10-05T12:42:06.935Z,11.00
2022-10-05T12:44:39.771Z,10.82
2022-10-05T12:47:12.193Z,11.23
2022-10-05T12:49:38.797Z,10.88
2022-10-05T12:52:06.447Z,11.02
2022-10-05T12:54:44.943Z,11.30
2022-10-05T12:57:31.721Z,11.77
2022-10-05T13:00:08.633Z,11.20
2022-10-05T13:02:46.697Z,11.50
2022-10-05T13:05:18.580Z,10.90
2022-10-05T13:07:45.262Z,11.25
2022-10-05T13:10:14.940Z,9.25
2022-10-05T13:12:41.556Z,8.52
2022-10-05T13:15:24.702Z,8.23
2022-10-05T13:18:03.614Z,8.73
2022-10-05T13:20:35.258Z,8.85
2022-10-05T13:23:25.095Z,8.65
2022-10-05T13:26:07.863Z,9.68
2022-10-05T13:28:37.286Z,8.57
2022-10-05T13:31:12.764Z,8.32
2022-10-05T13:33:51.031Z,8.25
2022-10-05T13:36:21.334Z,8.25
2022-10-05T13:39:00.171Z,7.22
2022-10-05T13:41:44.437Z,7.85
2022-10-05T13:44:19.916Z,7.10
2022-10-05T13:46:48.652Z,7.15
2022-10-05T13:49:21.438Z,6.82
2022-10-05T13:52:00.331Z,5.82
2022-10-05T13:54:45.709Z,7.03
2022-10-05T13:57:30.473Z,6.43
2022-10-05T14:00:13.610Z,6.82
2022-10-05T14:02:42.314Z,6.45
2022-10-05T14:05:22.734Z,6.07
2022-10-05T14:08:15.552Z,6.22
2022-10-05T14:10:43.207Z,6.50
2022-10-05T14:13:13.412Z,5.82
2022-10-05T14:15:42.381Z,5.75
2022-10-05T14:18:25.739Z,6.35
2022-10-05T14:21:15.929Z,6.15
2022-10-05T14:23:42.809Z,5.43
2022-10-05T14:26:20.349Z,6.35
2022-10-05T14:28:57.070Z,5.90
2022-10-05T14:31:28.665Z,6.18
2022-10-05T14:33:55.346Z,6.63
2022-10-05T14:36:40.264Z,6.43
2022-10-05T14:39:11.842Z,5.32
2022-10-05T14:41:42.498Z,6.00
2022-10-05T14:44:09.132Z,5.70
2022-10-05T14:46:36.293Z,5.18
2022-10-05T14:49:17.178Z,3.53
2022-10-05T14:51:43.939Z,2.75
2022-10-05T14:54:25.999Z,2.53
2022-10-05T14:56:53.103Z,4.25
2022-10-05T14:59:23.090Z,4.65
2022-10-05T15:01:59.032Z,4.45
2022-10-05T15:04:25.584Z,2.45
2022-10-05T15:06:58.444Z,3.33
2022-10-05T15:09:39.423Z,2.58
2022-10-05T15:12:06.121Z,3.90
2022-10-05T15:14:35.435Z,3.42
2022-10-05T15:17:15.140Z,3.40
2022-10-05T15:20:11.006Z,3.55
2022-10-05T15:22:46.365Z,3.63
2022-10-05T15:25:21.429Z,3.88
2022-10-05T15:28:02.038Z,3.90
2022-10-05T15:30:28.931Z,2.67
2022-10-05T15:33:05.233Z,3.22
2022-10-05T15:35:37.015Z,2.28
2022-10-05T15:38:09.512Z,1.83
2022-10-05T15:40:49.323Z,3.13
2022-10-05T15:43:21.079Z,1.80
2022-10-05T15:46:02.767Z,2.10
2022-10-05T15:48:42.402Z,2.10
2022-10-05T15:51:15.370Z,1.88
2022-10-05T15:54:15.608Z,1.73
2022-10-05T15:56:45.922Z,1.50
2022-10-05T15:59:38.853Z,1.40
2022-10-05T16:02:07.496Z,1.90
2022-10-05T16:05:04.828Z,1.50
2022-10-05T16:08:10.539Z,1.50
2022-10-05T16:10:38.999Z,1.60
2022-10-05T16:13:40.955Z,1.67
2022-10-05T16:16:16.666Z,2.30
2022-10-05T16:18:56.267Z,2.30
2022-10-05T16:21:22.824Z,1.85
2022-10-05T16:24:10.595Z,1.50
2022-10-05T16:26:38.587Z,1.80
2022-10-05T16:29:05.138Z,1.48
2022-10-05T16:31:37.788Z,1.25
2022-10-05T16:34:17.252Z,1.40
2022-10-05T16:36:49.886Z,1.50
2022-10-05T16:39:16.421Z,1.60
2022-10-05T16:41:58.142Z,1.42
2022-10-05T16:44:37.068Z,1.10
2022-10-05T16:47:27.138Z,1.42
2022-10-05T16:50:11.943Z,1.60
2022-10-05T16:52:40.271Z,1.42
2022-10-05T16:55:12.255Z,1.30
2022-10-05T16:57:40.679Z,1.20
2022-10-05T17:00:20.671Z,1.25
2022-10-05T17:02:50.283Z,1.10
2022-10-05T17:05:16.972Z,1.10
2022-10-05T17:07:50.518Z,1.30
2022-10-05T17:10:40.259Z,1.40
2022-10-05T17:13:27.054Z,1.48
2022-10-05T17:16:11.821Z,1.20
2022-10-05T17:18:57.290Z,1.38
2022-10-05T17:21:37.474Z,1.33
2022-10-05T17:24:26.756Z,1.30
2022-10-05T17:27:15.891Z,1.30
2022-10-05T17:29:49.934Z,1.48
2022-10-05T17:32:16.532Z,1.50
2022-10-05T17:35:01.280Z,1.20
2022-10-05T17:37:27.788Z,1.88
2022-10-05T17:39:57.887Z,1.40
2022-10-05T17:42:28.765Z,1.58
2022-10-05T17:44:58.772Z,1.75
2022-10-05T17:47:47.401Z,1.30
2022-10-05T17:50:43.311Z,1.30
2022-10-05T17:53:39.094Z,1.52
2022-10-05T17:56:05.918Z,1.50
2022-10-05T17:58:32.479Z,1.40
2022-10-05T18:00:59.801Z,1.10
2022-10-05T18:03:39.237Z,1.38
2022-10-05T18:06:28.370Z,2.08
2022-10-05T18:09:13.561Z,1.33
2022-10-05T18:11:44.585Z,1.67
2022-10-05T18:14:24.619Z,1.40
2022-10-05T18:17:27.822Z,1.60
2022-10-05T18:20:27.478Z,1.60
2022-10-05T18:23:14.429Z,1.50
2022-10-05T18:25:52.331Z,1.35
2022-10-05T18:28:25.522Z,1.58
2022-10-05T18:30:59.145Z,2.13
2022-10-05T18:33:39.120Z,1.80
2022-10-05T18:36:24.312Z,1.65
2022-10-05T18:39:08.659Z,1.90
2022-10-05T18:41:54.971Z,1.70
2022-10-05T18:44:34.620Z,1.40
2022-10-05T18:47:01.432Z,1.70
2022-10-05T18:49:36.240Z,1.88
2022-10-05T18:52:06.573Z,1.95
2022-10-05T18:54:36.263Z,1.80
2022-10-05T18:57:32.115Z,1.50
2022-10-05T19:00:06.694Z,1.80
2022-10-05T19:02:39.332Z,2.00
2022-10-05T19:05:29.326Z,1.98
2022-10-05T19:08:00.054Z,2.05
2022-10-05T19:10:26.633Z,1.92
2022-10-05T19:13:05.802Z,1.52
2022-10-05T19:15:50.953Z,2.08
2022-10-05T19:18:36.237Z,1.60
2022-10-05T19:21:08.319Z,1.13
2022-10-05T19:23:47.115Z,1.48
2022-10-05T19:26:32.595Z,1.70
2022-10-05T19:29:13.139Z,1.75
2022-10-05T19:31:57.833Z,1.63
2022-10-05T19:34:43.306Z,1.83
2022-10-05T19:37:21.262Z,1.80
2022-10-05T19:39:47.887Z,1.70
2022-10-05T19:42:32.841Z,1.75
2022-10-05T19:45:19.685Z,2.00
2022-10-05T19:48:05.876Z,1.85
2022-10-05T19:50:33.980Z,1.75
2022-10-05T19:53:12.672Z,2.45
2022-10-05T19:55:43.657Z,2.10
2022-10-05T19:58:24.779Z,2.13
2022-10-05T20:00:54.672Z,2.00
2022-10-05T20:03:31.837Z,2.58
2022-10-05T20:05:59.616Z,2.17
2022-10-05T20:08:27.681Z,2.10
2022-10-05T20:11:27.105Z,2.10
2022-10-05T20:13:53.658Z,1.80
2022-10-05T20:16:45.586Z,2.13
2022-10-05T20:19:49.605Z,1.73
2022-10-05T20:22:23.678Z,2.47
2022-10-05T20:24:51.295Z,2.05
2022-10-05T20:27:37.201Z,1.90
2022-10-05T20:30:04.508Z,2.05
2022-10-05T20:32:31.466Z,1.98
2022-10-05T20:34:58.133Z,2.10
2022-10-05T20:37:24.773Z,2.03
2022-10-05T20:39:51.547Z,2.10
2022-10-05T20:42:18.831Z,2.17
2022-10-05T20:44:45.564Z,2.60
2022-10-05T20:47:12.822Z,2.28
2022-10-05T20:49:41.222Z,2.25
2022-10-05T20:52:10.227Z,2.17
2022-10-05T20:54:37.665Z,2.22
2022-10-05T20:57:06.626Z,2.28
2022-10-05T20:59:33.628Z,2.30
2022-10-05T21:02:01.519Z,2.53
2022-10-05T21:04:40.310Z,2.58
2022-10-05T21:07:07.441Z,2.22
2022-10-05T21:09:34.104Z,2.78
2022-10-05T21:12:00.703Z,2.05
2022-10-05T21:14:28.188Z,2.28
2022-10-05T21:16:54.796Z,2.55
2022-10-05T21:19:21.967Z,2.30
2022-10-05T21:21:48.626Z,2.40
2022-10-05T21:24:15.401Z,2.22
2022-10-05T21:26:42.754Z,2.50
2022-10-05T21:29:12.521Z,2.55
2022-10-05T21:31:40.110Z,2.58
2022-10-05T21:34:06.864Z,2.80
2022-10-05T21:36:33.821Z,2.90
2022-10-05T21:39:00.745Z,2.92
2022-10-05T21:41:27.617Z,3.17
2022-10-05T21:43:54.249Z,3.15
2022-10-05T21:46:22.846Z,3.28
2022-10-05T21:48:49.874Z,3.40
2022-10-05T21:51:18.542Z,3.28
2022-10-05T21:53:51.060Z,3.80
2022-10-05T21:56:20.057Z,3.53
2022-10-05T21:58:47.431Z,3.60
2022-10-05T22:01:16.016Z,3.10
2022-10-05T22:03:45.611Z,3.53
2022-10-05T22:06:12.381Z,3.75
2022-10-05T22:08:39.050Z,3.80
2022-10-05T22:11:09.618Z,3.40
2022-10-05T22:13:40.187Z,3.17
2022-10-05T22:16:06.853Z,3.13
2022-10-05T22:18:33.491Z,3.22
2022-10-05T22:21:00.135Z,3.33
2022-10-05T22:23:26.699Z,2.75
2022-10-05T22:25:53.379Z,3.58
2022-10-05T22:28:19.987Z,3.33
2022-10-05T22:30:46.615Z,2.40
2022-10-05T22:33:13.355Z,2.90
2022-10-05T22:35:40.077Z,3.53
2022-10-05T22:38:06.693Z,3.20
2022-10-05T22:40:33.270Z,3.80
2022-10-05T22:42:59.933Z,3.47
2022-10-05T22:45:31.762Z,2.70
2022-10-05T22:47:59.279Z,2.97
2022-10-05T22:50:25.964Z,3.58
2022-10-05T22:52:52.609Z,3.70
2022-10-05T22:55:19.264Z,3.15
2022-10-05T22:57:45.889Z,3.17
2022-10-05T23:00:12.701Z,3.40
2022-10-05T23:02:40.706Z,3.35
2022-10-05T23:05:08.247Z,3.53
2022-10-05T23:07:35.435Z,3.22
2022-10-05T23:10:02.324Z,2.58
2022-10-05T23:12:28.943Z,2.83
2022-10-05T23:14:55.551Z,2.50
2022-10-05T23:17:22.101Z,2.53
2022-10-05T23:19:48.715Z,2.50
2022-10-05T23:22:15.329Z,2.47
2022-10-05T23:24:41.936Z,2.60
2022-10-05T23:27:08.538Z,2.85
2022-10-05T23:29:35.110Z,3.03
2022-10-05T23:32:01.689Z,2.72
2022-10-05T23:34:28.259Z,2.30
2022-10-05T23:36:55.069Z,2.08
2022-10-05T23:39:21.652Z,2.28
2022-10-05T23:41:48.234Z,2.13
2022-10-05T23:44:14.866Z,2.20
2022-10-05T23:46:41.566Z,2.33
2022-10-05T23:49:08.847Z,2.60
2022-10-05T23:51:35.460Z,2.05
2022-10-05T23:54:02.072Z,2.13
2022-10-05T23:56:28.674Z,2.60
2022-10-05T23:58:55.262Z,2.47
